SAS B736 at Bergen on Nov 9th 2015, hard landing

Last Update: November 9, 2015 / 21:54:45 GMT/Zulu time

Bookmark this article
Incident Facts

Date of incident
Nov 9, 2015

Classification
Incident

Flight number
SK-269

Departure
Oslo, Norway

Destination
Bergen, Norway

Aircraft Registration
LN-RRX

Aircraft Type
Boeing 737-600

ICAO Type Designator
B736

Airport ICAO Code
ENBR

A SAS Scandinavian Airlines Boeing 737-600, registration LN-RRX performing flight SK-269 from Oslo to Bergen (Norway), landed on Bergen's runway 17 at 15:27L (14:27Z) but suffered a rather "positive arrival". The aircraft rolled out without further incident and taxied to the apron.

The aircraft was unable to perform the return flight SK-274 however due to the required hard landing inspection and is still on the ground in Bergen about 7 hours after landing.

The return flight SK-274 was cancelled, the passengers were rebooked onto the next flight.

The airline reported the hard landing wasn't that dramatic, a detailed hard landing inspection is needed however. The aircraft was landing in a heavy storm and gusting winds.

Metars:
ENBR 091650Z 26021KT 9999 VCSH FEW010 FEW014CB BKN027 10/06 Q0992 TEMPO 24025G35KT RMK WIND 1200FT 27036G52KT
ENBR 091620Z 25015G27KT 9999 VCSH FEW014CB SCT022 BKN030 10/06 Q0991 TEMPO 4000 SHRA BKN014CB RMK WIND 1200FT 26026G46KT
ENBR 091550Z 25019KT 9999 VCSH FEW015 SCT021 BKN028 09/06 Q0991 TEMPO 24022G35KT 4000 SHRA BKN014CB RMK WIND 1200FT 25033G45KT
ENBR 091520Z 24018G29KT 9999 -SHRA FEW006 SCT015 BKN027 10/07 Q0991 TEMPO 4000 SHRA BKN012CB RMK WIND 1200FT 26031G47KT
ENBR 091450Z 24020G33KT 9999 VCSH FEW009 SCT018 BKN028 10/07 Q0991 TEMPO 4000 SHRA BKN012CB RMK WIND 1200FT 25033G45KT
ENBR 091420Z 24020KT 9999 VCSH FEW009 SCT014 BKN025 11/07 Q0991 TEMPO 24022G35KT 4000 SHRA BKN012CB RMK WIND 1200FT 25029G40KT
ENBR 091350Z 22018KT 190V250 9999 VCSH FEW008 SCT013 BKN025 10/08 Q0990 TEMPO 4000 SHRA BKN012 BECMG 24022G35KT RMK WIND 1200FT 24030G41KT
ENBR 091320Z 17023G33KT 9999 VCSH FEW002 SCT010 BKN017 08/07 Q0990 TEMPO 4000 SHRA BKN012 BECMG 24022G35KT RMK WIND 1200FT 20032G51KT
ENBR 091250Z 15018KT 6000 RADZ FEW006 BKN011 07/06 Q0990 TEMPO 4000 SHRA BECMG 24022G35KT RMK WIND 1200FT 17024KT
ENBR 091220Z 18019KT 9000 SHRA FEW010 SCT013 BKN018 07/06 Q0991 TEMPO 4000 SHRA BKN012 RMK WIND 1200FT 17023G36KT
ENBR 091150Z 17017G27KT 140V210 9000 SHRA FEW010 SCT013 BKN020 07/06 Q0993 TEMPO 4000 SHRA BKN014 RMK WIND 1200FT 19030G48KT
ENBR 091120Z 17021KT 7000 SHRA FEW010 BKN013 07/06 Q0993 TEMPO 4000 SHRA RMK WIND 1200FT 19028G45KT
Incident Facts

Date of incident
Nov 9, 2015

Classification
Incident

Flight number
SK-269

Departure
Oslo, Norway

Destination
Bergen, Norway

Aircraft Registration
LN-RRX

Aircraft Type
Boeing 737-600

ICAO Type Designator
B736

Airport ICAO Code
ENBR

This article is published under license from Avherald.com. © of text by Avherald.com.
Article source

You can read 4 more free articles without a subscription.

Subscribe now and continue reading without any limits!

Are you a subscriber?
Login
Subscribe

Read unlimited articles and receive our daily update briefing. Gain better insights into what is happening in commercial aviation safety.

Free newsletter

Want to know more and stay ahead? Get our free weekly newsletter and join 4931 existing subscribers.

By subscribing, you accept our terms and conditions and confirm that you've read our privacy policy.

Send tip

Support AeroInside by sending a small tip amount.

Related articles

Newest articles

Subscribe today

Are you researching aviation incidents? Get access to AeroInside Insights, unlimited read access and receive the daily newsletter.

Pick your plan and subscribe

Partner

Blockaviation logo

A new way to document and demonstrate airworthiness compliance and aircraft value. Find out more.

Virtual Speech logo

ELITE Simulation Solutions is a leading global provider of Flight Simulation Training Devices, IFR training software as well as flight controls and related services. Find out more.

Get updates

Never miss an article from AeroInside. Subscribe to our free weekly newsletter and join 4931 existing subscribers.

By subscribing, you accept our terms and conditions and that you've read our privacy policy.

AeroInside Blog
Popular aircraft
Airbus A320
Boeing 737-800
Boeing 737-800 MAX
Popular airlines
American Airlines
United
Delta
Air Canada
Lufthansa
British Airways